Погода Стэнтонна неделю

Калифорния, США

01 - 07 сентября
  • 01сентября
    Сегодня
    +18°
    +28°
    Ясно и безоблачно
    ВремяПогодаТемператураВлажностьДавлениеВетер, м/сВероятность осадков
    02:00Ясно и безоблачно+19°C82 %759 мм0.4 м/с2 %
    05:00Ясно и безоблачно+21°C83 %759 мм0.1 м/с2 %
    08:00Ясно и безоблачно+22°C75 %760 мм0.4 м/с2 %
    11:00Ясно и безоблачно+26°C54 %760 мм3.4 м/с2 %
    14:00Ясно и безоблачно+27°C45 %759 мм5.4 м/с2 %
    17:00Ясно и безоблачно+26°C48 %758 мм5.5 м/с2 %
    20:00Ясно и безоблачно+22°C61 %758 мм3.4 м/с2 %
    23:00Ясно и безоблачно+20°C71 %760 мм0.9 м/с2 %
  • 02сентября
    Среда
    +18°
    +27°
    Ясно и безоблачно
    ВремяПогодаТемператураВлажностьДавлениеВетер, м/сВероятность осадков
    02:00Ясно и безоблачно+18°C79 %760 мм0.0 м/с2 %
    05:00Ясно и безоблачно+18°C78 %760 мм0.0 м/с2 %
    08:00Ясно и безоблачно+20°C71 %760 мм0.5 м/с2 %
    11:00Ясно и безоблачно+25°C55 %760 мм3.4 м/с2 %
    14:00Ясно и безоблачно+27°C44 %759 мм5.1 м/с2 %
    17:00Ясно и безоблачно+26°C50 %758 мм5.3 м/с2 %
    20:00Ясно и безоблачно+23°C57 %758 мм2.9 м/с2 %
    23:00Ясно и безоблачно+21°C68 %759 мм0.2 м/с2 %
  • 03сентября
    Четверг
    +19°
    +27°
    Ясно и безоблачно
    ВремяПогодаТемператураВлажностьДавлениеВетер, м/сВероятность осадков
    02:00Ясно и безоблачно+19°C80 %759 мм0.3 м/с2 %
    05:00Практически безоблачно+19°C81 %758 мм0.8 м/с2 %
    08:00Небольшая облачность+22°C72 %759 мм1.6 м/с2 %
    11:00Ясно и безоблачно+25°C56 %759 мм3.5 м/с2 %
    14:00Ясно и безоблачно+27°C52 %757 мм5.1 м/с2 %
    17:00Ясно и безоблачно+26°C60 %756 мм5.0 м/с2 %
    20:00Ясно и безоблачно+22°C65 %756 мм3.2 м/с2 %
    23:00Ясно и безоблачно+21°C74 %758 мм0.5 м/с2 %
  • 04сентября
    Пятница
    +18°
    +28°
    Ясно и безоблачно
    ВремяПогодаТемператураВлажностьДавлениеВетер, м/сВероятность осадков
    02:00Ясно и безоблачно+20°C79 %757 мм0.9 м/с2 %
    05:00Практически безоблачно+19°C80 %757 мм1.1 м/с2 %
    08:00Практически безоблачно+22°C73 %758 мм1.0 м/с2 %
    11:00Ясно и безоблачно+26°C52 %758 мм3.4 м/с2 %
    14:00Ясно и безоблачно+27°C47 %757 мм4.9 м/с2 %
    17:00Ясно и безоблачно+26°C52 %757 мм4.6 м/с2 %
    20:00Ясно и безоблачно+23°C69 %757 мм2.8 м/с2 %
    23:00Ясно и безоблачно+21°C79 %758 мм0.2 м/с2 %
  • 05сентября
    Суббота
    +20°
    +30°
    Ясно и безоблачно
    ВремяПогодаТемператураВлажностьДавлениеВетер, м/сВероятность осадков
    02:00Ясно и безоблачно+20°C85 %758 мм0.0 м/с5 %
    05:00Ясно и безоблачно+19°C84 %757 мм0.0 м/с7 %
    08:00Ясно и безоблачно+22°C76 %758 мм0.0 м/с12 %
    11:00Ясно и безоблачно+27°C48 %758 мм3.0 м/с17 %
    14:00Ясно и безоблачно+29°C38 %757 мм4.9 м/с18 %
    17:00Ясно и безоблачно+28°C43 %757 мм4.9 м/с17 %
    20:00Ясно и безоблачно+24°C59 %757 мм2.5 м/с16 %
    23:00Небольшая облачность+23°C72 %758 мм0.3 м/с22 %
  • 06сентября
    Воскресенье
    +19°
    +31°
    Ясно и безоблачно
    ВремяПогодаТемператураВлажностьДавлениеВетер, м/сВероятность осадков
    05:00Практически безоблачно+21°C76 %757 мм0.0 м/с26 %
    11:00Ясно и безоблачно+29°C66 %758 мм2.2 м/с30 %
    17:00Ясно и безоблачно+30°C51 %756 мм3.4 м/с30 %
    23:00Ясно и безоблачно+23°C68 %758 мм2.0 м/с24 %
  • 07сентября
    Понедельник
    +18°
    +29°
    Ясно и безоблачно
    ВремяПогодаТемператураВлажностьДавлениеВетер, м/сВероятность осадков
    05:00Ясно и безоблачно+20°C83 %757 мм1.5 м/с15 %
    11:00Ясно и безоблачно+27°C50 %758 мм2.5 м/с22 %
    17:00Ясно и безоблачно+27°C43 %756 мм4.5 м/с18 %
    23:00Ясно и безоблачно+21°C77 %757 мм1.9 м/с16 %
Мы используем cookies
Соглашаюсь